Time;durP1;ratioP1;P1;durP2;ratioP2;P2;SDS_P1;SDS_P2;PMS_P1;PMS_P2;Temp;Humidity;BMP_temperature;BMP_pressure;BME280_temperature;BME280_humidity;BME280_pressure;Samples;Min_cycle;Max_cycle;Signal;HPM_P1;HPM_P2
2022/07/14 03:58:31;;;;;;;;;13.67;13.67;;;;;25.60;45.82;101541.13;5097146;27;45541;-73
2022/07/14 04:00:57;;;;;;;;;15.33;14.00;;;;;25.65;45.42;101542.34;5089536;27;45660;-75
2022/07/14 04:03:22;;;;;;;;;14.00;14.00;;;;;25.78;45.36;101538.28;5073069;27;45451;-74
2022/07/14 04:05:47;;;;;;;;;11.67;11.67;;;;;25.96;44.91;101542.78;5085468;27;45620;-74
2022/07/14 04:08:13;;;;;;;;;14.33;12.00;;;;;26.17;44.67;101545.03;5087457;27;45503;-74
2022/07/14 04:10:39;;;;;;;;;9.67;9.67;;;;;26.37;44.28;101537.44;5093129;27;45391;-76
2022/07/14 04:13:04;;;;;;;;;10.67;10.00;;;;;26.59;43.49;101540.50;5094436;27;45347;-73
2022/07/14 04:15:30;;;;;;;;;12.00;12.00;;;;;26.76;43.50;101529.63;5101239;27;45388;-76
2022/07/14 04:17:57;;;;;;;;;13.33;11.67;;;;;26.95;43.34;101539.31;5092153;27;45386;-73
2022/07/14 04:20:23;;;;;;;;;12.67;11.00;;;;;27.17;43.47;101550.50;5091510;27;45415;-76
2022/07/14 04:22:49;;;;;;;;;9.33;9.33;;;;;27.30;43.14;101550.81;5093108;27;45480;-75
2022/07/14 04:25:15;;;;;;;;;13.00;9.00;;;;;27.47;42.55;101548.06;5093366;27;45601;-76
2022/07/14 04:27:41;;;;;;;;;8.00;8.00;;;;;27.60;41.80;101555.69;5095819;27;45482;-76
2022/07/14 04:30:11;;;;;;;;;8.33;8.33;;;;;27.72;41.95;101553.44;5090486;27;45500;-76
2022/07/14 04:32:36;;;;;;;;;8.00;8.00;;;;;27.83;41.46;101552.19;5091514;27;45541;-76
2022/07/14 04:35:03;;;;;;;;;9.33;7.67;;;;;27.93;41.14;101549.22;5089800;27;46711;-76
2022/07/14 04:37:28;;;;;;;;;8.00;8.00;;;;;28.02;40.98;101554.47;5090392;27;45560;-76
2022/07/14 04:39:54;;;;;;;;;9.00;9.00;;;;;28.12;40.83;101553.38;5084529;27;46332;-77
2022/07/14 04:42:20;;;;;;;;;9.33;9.33;;;;;28.18;41.20;101539.00;5088172;27;45502;-80
2022/07/14 04:44:46;;;;;;;;;7.33;7.33;;;;;28.26;40.53;101546.31;5095458;27;45490;-79
2022/07/14 04:47:12;;;;;;;;;9.00;9.00;;;;;28.31;40.66;101549.34;5091673;27;46924;-76
2022/07/14 04:52:21;;;;;;;;;5.00;5.00;;;;;28.40;40.13;101556.47;5090870;27;45441;-80
2022/07/14 04:54:46;;;;;;;;;7.00;7.00;;;;;28.44;40.04;101551.47;5090777;27;45381;-79
2022/07/14 04:57:12;;;;;;;;;7.67;7.67;;;;;28.45;40.60;101555.91;5094406;27;45603;-79
2022/07/14 04:59:37;;;;;;;;;6.67;6.67;;;;;28.48;40.68;101555.53;5088746;27;45442;-78
2022/07/14 05:02:04;;;;;;;;;8.67;8.33;;;;;28.54;40.37;101564.88;5086792;27;45520;-78
2022/07/14 05:04:30;;;;;;;;;9.00;9.00;;;;;28.53;39.97;101558.56;5109349;27;45417;-77
2022/07/14 05:06:55;;;;;;;;;8.67;8.00;;;;;28.57;40.23;101561.78;5091438;27;45296;-75
2022/07/14 05:09:22;;;;;;;;;7.00;7.00;;;;;28.61;39.59;101559.53;5078476;27;45396;-74
2022/07/14 05:11:49;;;;;;;;;9.33;8.67;;;;;28.61;39.96;101565.00;5076153;27;45782;-75
2022/07/14 05:14:15;;;;;;;;;7.67;7.67;;;;;28.65;39.58;101560.88;5077206;27;45548;-75
2022/07/14 05:16:40;;;;;;;;;8.33;7.00;;;;;28.68;39.38;101565.97;5078639;27;45855;-75
2022/07/14 05:19:06;;;;;;;;;10.33;9.00;;;;;28.71;40.11;101556.53;5080473;27;45712;-74
2022/07/14 05:21:32;;;;;;;;;8.67;8.33;;;;;28.72;39.55;101555.53;5076707;28;45445;-75
2022/07/14 05:23:57;;;;;;;;;9.33;9.33;;;;;28.72;39.54;101564.56;5077130;28;45467;-75
2022/07/14 05:26:23;;;;;;;;;11.33;9.33;;;;;28.76;40.19;101565.03;5076628;28;45348;-75
2022/07/14 05:28:49;;;;;;;;;10.00;9.33;;;;;28.77;39.78;101572.22;5074889;27;45468;-75
2022/07/14 05:31:14;;;;;;;;;9.00;9.00;;;;;28.79;40.21;101565.53;5076668;28;45767;-75
2022/07/14 05:33:40;;;;;;;;;7.67;7.67;;;;;28.80;40.02;101566.38;5076780;27;45329;-74
2022/07/14 05:36:06;;;;;;;;;7.33;7.33;;;;;28.82;40.07;101568.91;5076891;28;47617;-74
2022/07/14 05:38:31;;;;;;;;;10.67;10.67;;;;;28.81;39.70;101568.06;5074611;27;45465;-74
2022/07/14 05:40:59;;;;;;;;;8.00;8.00;;;;;28.84;40.25;101561.38;5075733;27;45370;-74
2022/07/14 05:43:25;;;;;;;;;8.33;8.33;;;;;28.85;40.12;101566.66;5073071;27;45421;-74
2022/07/14 05:45:50;;;;;;;;;8.33;8.33;;;;;28.87;40.21;101566.47;5077818;27;46434;-74
2022/07/14 05:48:15;;;;;;;;;10.00;9.33;;;;;28.89;39.88;101565.28;5075365;27;51672;-75
2022/07/14 05:50:41;;;;;;;;;12.33;10.67;;;;;28.88;40.10;101558.13;5075678;27;45468;-74
2022/07/14 05:53:06;;;;;;;;;8.00;8.00;;;;;28.90;39.67;101555.22;5058309;28;45353;-74
2022/07/14 05:55:31;;;;;;;;;11.33;11.33;;;;;28.94;39.45;101556.56;5068050;28;46134;-74
2022/07/14 05:57:57;;;;;;;;;9.00;9.00;;;;;28.96;39.62;101565.41;5076276;27;45504;-75
2022/07/14 06:00:22;;;;;;;;;10.00;8.33;;;;;28.98;40.16;101557.03;5074915;28;45413;-76
2022/07/14 06:02:47;;;;;;;;;14.67;12.00;;;;;29.00;40.18;101565.88;5075943;27;45352;-76
2022/07/14 06:05:13;;;;;;;;;10.33;9.33;;;;;29.01;39.66;101565.69;5076385;27;46869;-75
2022/07/14 06:07:39;;;;;;;;;14.00;11.67;;;;;29.02;39.54;101563.81;5070086;27;45445;-76
2022/07/14 06:10:05;;;;;;;;;11.67;11.67;;;;;29.02;39.61;101569.28;5075035;28;46306;-76
2022/07/14 06:12:32;;;;;;;;;9.33;9.33;;;;;29.04;40.13;101561.72;5073861;27;45327;-76
2022/07/14 06:14:57;;;;;;;;;8.33;8.33;;;;;29.06;39.33;101570.63;5076328;28;45352;-76
2022/07/14 06:17:22;;;;;;;;;8.00;8.00;;;;;29.09;39.65;101572.94;5076147;27;45357;-75
2022/07/14 06:19:47;;;;;;;;;13.00;11.33;;;;;29.11;39.59;101573.63;5074964;27;45408;-76
2022/07/14 06:22:13;;;;;;;;;9.67;8.67;;;;;29.12;39.77;101572.59;5073134;28;46925;-75
2022/07/14 06:24:41;;;;;;;;;11.00;9.33;;;;;29.13;39.53;101570.69;5074788;27;51041;-76
2022/07/14 06:27:06;;;;;;;;;10.67;10.33;;;;;29.13;39.03;101579.75;5068753;28;45474;-75
2022/07/14 06:29:32;;;;;;;;;10.33;9.67;;;;;29.14;39.09;101577.88;5072777;28;45435;-76
2022/07/14 06:31:57;;;;;;;;;11.33;11.33;;;;;29.10;39.42;101571.09;5064065;27;45519;-75
2022/07/14 06:34:23;;;;;;;;;7.00;7.00;;;;;29.10;39.05;101582.00;5066455;28;46054;-76
2022/07/14 06:36:49;;;;;;;;;9.00;9.00;;;;;29.10;39.22;101582.84;5072961;27;45465;-75
2022/07/14 06:39:14;;;;;;;;;9.67;8.67;;;;;29.11;39.61;101587.31;5063727;27;45482;-76
2022/07/14 06:41:40;;;;;;;;;9.67;9.67;;;;;29.11;39.46;101575.50;5075955;28;45361;-75
2022/07/14 06:44:06;;;;;;;;;9.67;8.00;;;;;29.13;39.24;101577.00;5075857;27;46027;-76
2022/07/14 06:46:32;;;;;;;;;10.67;10.67;;;;;29.16;39.29;101575.78;5071211;27;45608;-76
2022/07/14 06:48:58;;;;;;;;;9.00;9.00;;;;;29.18;39.63;101577.31;5066688;27;45424;-77
2022/07/14 06:51:24;;;;;;;;;10.00;9.00;;;;;29.21;39.76;101577.97;5075013;27;45590;-74
2022/07/14 06:53:49;;;;;;;;;11.67;11.33;;;;;29.21;39.58;101584.28;5073570;28;45349;-74
2022/07/14 06:56:15;;;;;;;;;9.00;8.67;;;;;29.24;39.63;101581.19;5073209;27;45463;-74
2022/07/14 06:58:40;;;;;;;;;10.33;10.00;;;;;29.22;39.19;101576.94;5067941;28;45615;-74
2022/07/14 07:01:06;;;;;;;;;8.00;8.00;;;;;29.27;39.02;101588.16;5074618;27;45391;-74
2022/07/14 07:03:31;;;;;;;;;6.00;6.00;;;;;29.28;39.09;101582.50;5073783;27;47347;-75
2022/07/14 07:08:40;;;;;;;;;10.67;9.33;;;;;29.26;39.50;101581.81;5070044;27;45479;-76
2022/07/14 07:11:05;;;;;;;;;7.67;7.67;;;;;29.27;39.32;101583.56;5075254;27;45872;-75
2022/07/14 07:13:31;;;;;;;;;10.00;9.33;;;;;29.28;39.20;101593.44;5064050;28;51379;-75
2022/07/14 07:15:56;;;;;;;;;8.67;7.33;;;;;29.29;39.37;101586.94;5066997;28;45397;-75
2022/07/14 07:18:22;;;;;;;;;9.00;9.00;;;;;29.32;39.64;101585.72;5071254;28;45514;-75
2022/07/14 07:20:47;;;;;;;;;10.67;10.00;;;;;29.36;39.42;101594.38;5073125;27;45351;-75
2022/07/14 07:23:12;;;;;;;;;6.67;6.67;;;;;29.37;39.37;101590.59;5075411;27;46290;-75
2022/07/14 07:25:38;;;;;;;;;9.33;9.33;;;;;29.38;39.09;101586.84;5070352;27;46854;-74
2022/07/14 07:28:03;;;;;;;;;11.00;9.00;;;;;29.38;39.49;101595.06;5072891;27;45514;-74
2022/07/14 07:30:29;;;;;;;;;9.67;8.33;;;;;29.37;39.20;101594.19;5067879;28;45523;-74
2022/07/14 07:32:55;;;;;;;;;8.00;8.00;;;;;29.40;38.88;101596.56;5071290;28;46191;-73
2022/07/14 07:35:21;;;;;;;;;8.67;8.67;;;;;29.40;38.61;101588.34;5074624;28;45455;-75
2022/07/14 07:37:47;;;;;;;;;9.00;9.00;;;;;29.47;38.72;101593.94;5072380;27;45438;-75
2022/07/14 07:40:14;;;;;;;;;8.00;8.00;;;;;29.53;38.23;101593.19;5074734;27;45371;-74
2022/07/14 07:42:40;;;;;;;;;9.33;9.33;;;;;29.59;38.04;101595.16;5074398;27;46859;-74
2022/07/14 07:45:07;;;;;;;;;9.00;9.00;;;;;29.64;38.08;101594.59;5074214;28;45436;-74
2022/07/14 07:47:32;;;;;;;;;10.67;9.00;;;;;29.71;37.72;101594.69;5070106;27;45578;-75
2022/07/14 07:49:57;;;;;;;;;8.33;8.33;;;;;29.76;37.95;101585.91;5071080;27;45447;-74
2022/07/14 07:52:23;;;;;;;;;11.00;10.33;;;;;29.81;37.86;101588.91;5074703;27;46005;-75
2022/07/14 07:54:48;;;;;;;;;9.33;8.00;;;;;29.85;37.63;101580.16;5071177;27;45490;-74
2022/07/14 07:57:14;;;;;;;;;10.00;10.00;;;;;29.89;37.91;101582.47;5075278;27;45449;-73
2022/07/14 07:59:39;;;;;;;;;7.67;7.67;;;;;29.93;37.33;101572.84;5073905;27;45424;-74
2022/07/14 08:02:05;;;;;;;;;10.00;10.00;;;;;29.95;37.57;101568.03;5074806;27;46155;-74
2022/07/14 08:04:32;;;;;;;;;9.33;9.33;;;;;29.96;37.60;101567.84;5073001;27;45425;-75
2022/07/14 08:06:57;;;;;;;;;7.33;7.33;;;;;30.00;37.21;101570.19;5075328;27;45436;-75
2022/07/14 08:09:23;;;;;;;;;11.00;9.67;;;;;30.03;37.36;101565.19;5072811;27;45368;-74
2022/07/14 08:11:48;;;;;;;;;7.67;7.67;;;;;30.06;37.34;101559.31;5074105;28;46053;-74
2022/07/14 08:16:58;;;;;;;;;8.67;8.67;;;;;30.06;37.30;101556.59;5075308;28;45324;-74
2022/07/14 08:19:24;;;;;;;;;10.00;9.00;;;;;30.11;37.41;101558.75;5073465;27;45382;-74
2022/07/14 08:21:49;;;;;;;;;11.67;9.67;;;;;30.15;37.50;101562.81;5074454;27;45297;-73
2022/07/14 08:24:15;;;;;;;;;10.33;9.33;;;;;30.18;37.23;101562.44;5069741;27;45579;-75
2022/07/14 08:26:40;;;;;;;;;11.00;11.00;;;;;30.20;37.78;101564.97;5074425;28;45506;-74
2022/07/14 08:29:07;;;;;;;;;8.67;8.00;;;;;30.22;37.33;101555.53;5070336;27;45517;-74
2022/07/14 08:31:33;;;;;;;;;9.33;9.33;;;;;30.24;37.80;101558.06;5072299;27;45400;-74
2022/07/14 08:33:58;;;;;;;;;8.67;8.67;;;;;30.23;38.05;101551.75;5067863;27;45420;-75
2022/07/14 08:36:23;;;;;;;;;9.00;9.00;;;;;30.28;38.07;101551.16;5069683;28;45371;-73
2022/07/14 08:38:49;;;;;;;;;10.00;9.00;;;;;30.30;38.12;101550.97;5073401;28;45376;-74
2022/07/14 08:41:14;;;;;;;;;8.00;8.00;;;;;30.30;38.03;101550.97;5069566;27;47125;-74
2022/07/14 08:43:41;;;;;;;;;9.50;9.50;;;;;30.32;37.91;101557.09;5074963;27;45400;-73
2022/07/14 08:46:06;;;;;;;;;13.67;10.67;;;;;30.33;37.85;101548.66;5076259;27;45443;-73
2022/07/14 08:48:32;;;;;;;;;9.00;9.00;;;;;30.36;38.07;101552.91;5077841;27;45661;-74
2022/07/14 08:50:57;;;;;;;;;9.33;9.33;;;;;30.33;38.23;101545.94;5068569;27;45552;-74
2022/07/14 08:53:24;;;;;;;;;10.67;8.00;;;;;30.37;38.23;101549.97;5074748;27;45386;-75
2022/07/14 08:55:49;;;;;;;;;9.00;9.00;;;;;30.38;38.35;101553.56;5073988;28;45432;-74
2022/07/14 08:58:15;;;;;;;;;10.00;9.67;;;;;30.40;38.26;101562.44;5072757;27;45409;-74
2022/07/14 09:00:40;;;;;;;;;10.67;10.00;;;;;30.38;38.32;101548.09;5077032;27;45531;-74
2022/07/14 09:03:06;;;;;;;;;7.00;7.00;;;;;30.42;38.33;101549.41;5067721;27;45608;-75
2022/07/14 09:05:31;;;;;;;;;8.00;8.00;;;;;30.44;38.64;101560.16;5070830;27;45495;-76
2022/07/14 09:07:57;;;;;;;;;7.00;7.00;;;;;30.46;38.61;101560.81;5065293;28;45336;-76
2022/07/14 09:10:26;;;;;;;;;8.00;8.00;;;;;30.46;38.66;101563.53;5070334;27;47676;-75
2022/07/14 09:13:07;;;;;;;;;10.00;8.33;;;;;30.47;38.25;101554.28;5070746;28;45988;-76
